Jomi — C6VK4 — position and weather

sailwx.info

Track history (hours):
 
Tides and Currents Weather Stations Pressure Air Temp Water Temp Dewpoint Dewpoint Depression Visibility Wind Speed Wind Dir Waves Ship Positions

Jomi

Last reported at 2015-May-24 01:32 UTC. Time now 2015-May-24 13:24 UTC.
Position N 52°08' W 005°52'.

Length 88 m; draft 5.8 m.

Type: Cargo ship. MMSI: 309701000.

Date/timePositionNaut miles runAvg speedWind from/ knotsBaromVisibWave heightAir tempDewpointWater temp
2015-May-24 01:32N 52°08' W 005°52'8 8.4
2015-May-24 00:33N 52°16' W 005°50'8 8.0
2015-May-23 23:33N 52°24' W 005°48'82 9.0
2015-May-23 14:28N 53°44' W 006°16'1 0.0
2015-May-22 12:33N 53°43' W 006°18'6 6.1
2015-May-22 11:33N 53°43' W 006°07'8810.9
2015-May-22 03:32N 53°34' W 003°40'1212.3
2015-May-22 02:33N 53°32' W 003°20'1010.0
2015-May-22 01:33N 53°29' W 003°04'9 8.7
2015-May-22 00:33N 53°21' W 002°58'3 3.1
2015-May-21 23:33N 53°18' W 002°55'5 5.2
2015-May-21 22:33N 53°18' W 002°46'2 2.3
2015-May-21 21:33N 53°20' W 002°45'0 0.0
2015-May-21 20:33N 53°20' W 002°45'0 0.0
2015-May-21 19:33N 53°20' W 002°45'0 0.0
2015-May-21 18:33N 53°20' W 002°45'0 0.0
2015-May-21 17:33N 53°20' W 002°45'0 0.0
2015-May-21 16:30N 53°20' W 002°45'0 0.0
2015-May-21 15:27N 53°20' W 002°45'0 0.0
2015-May-21 14:33N 53°20' W 002°45'0 0.0
2015-May-21 13:33N 53°20' W 002°45'0 0.0
2015-May-21 12:33N 53°20' W 002°45'0 0.0
2015-May-21 11:33N 53°20' W 002°45'0 0.0
2015-May-21 10:27N 53°20' W 002°45'0 0.0
2015-May-21 09:33N 53°20' W 002°45'0 0.0
2015-May-21 08:33N 53°20' W 002°45'0 0.0
2015-May-21 07:33N 53°20' W 002°45'0 0.0
2015-May-21 06:30N 53°20' W 002°45'0 0.0
2015-May-21 05:33N 53°20' W 002°45'0 0.0
2015-May-21 04:33N 53°20' W 002°45'0 0.0
2015-May-21 03:33N 53°20' W 002°45'0 0.0
2015-May-21 02:33N 53°20' W 002°45'0 0.0
2015-May-21 01:33N 53°20' W 002°45'0 0.0
2015-May-21 00:29N 53°20' W 002°45'0 0.0
2015-May-20 23:32N 53°20' W 002°45'0 0.0
2015-May-20 22:29N 53°20' W 002°45'0 0.0
2015-May-20 21:32N 53°20' W 002°45'0 0.0
2015-May-20 20:32N 53°20' W 002°45'0 0.0
2015-May-20 19:32N 53°20' W 002°45'0 0.0
2015-May-20 18:32N 53°20' W 002°45'0 0.0
2015-May-20 17:32N 53°20' W 002°45'0 0.0
2015-May-20 16:32N 53°20' W 002°45'0 0.0
2015-May-20 15:29N 53°20' W 002°45'0 0.0
2015-May-20 14:32N 53°20' W 002°45'0 0.0
2015-May-20 13:32N 53°20' W 002°45'0 0.0
2015-May-20 12:32N 53°20' W 002°45'0 0.0
2015-May-20 11:32N 53°20' W 002°45'0 0.0
2015-May-20 10:29N 53°20' W 002°45'0 0.0
2015-May-20 09:32N 53°20' W 002°45'0 0.0
2015-May-20 08:32N 53°20' W 002°45'0 0.0
2015-May-20 07:32N 53°20' W 002°45'0 0.0
2015-May-20 06:32N 53°20' W 002°45'0 0.0
2015-May-20 05:32N 53°20' W 002°45'0 0.0
2015-May-20 04:32N 53°20' W 002°45'1 1.4
2015-May-20 03:33N 53°19' W 002°45'6 5.8
2015-May-20 02:33N 53°18' W 002°55'3 2.9
2015-May-20 01:33N 53°20' W 002°58'3 3.0
2015-May-20 00:33N 53°23' W 002°60'7 7.3
2015-May-19 23:33N 53°29' W 003°05'10 9.7
2015-May-19 22:33N 53°31' W 003°21'1010.2
2015-May-19 21:33N 53°38' W 003°34'1111.3
2015-May-19 20:33N 53°46' W 003°48'54 7.6
2015-May-19 13:30N 54°16' W 005°04'910.0
2015-May-19 12:33N 54°24' W 005°10'1010.0
2015-May-19 11:33N 54°34' W 005°17'1211.7
2015-May-19 10:33N 54°44' W 005°25'1412.4
2015-May-19 09:28N 54°55' W 005°38'2613.9
2015-May-19 07:33N 55°17' W 006°04'1211.5
2015-May-19 06:33N 55°25' W 006°19'1010.3
2015-May-19 05:33N 55°33' W 006°31'8 8.3
2015-May-19 04:33N 55°39' W 006°40'7 6.9
2015-May-19 03:33N 55°46' W 006°45'8 7.5
2015-May-19 02:31N 55°53' W 006°52'131 9.1
2015-May-18 12:10N 58°01' W 006°11'610.4
2015-May-18 11:33N 58°06' W 006°03'1010.1
2015-May-18 10:33N 58°13' W 005°50'10 9.6
2015-May-18 09:33N 58°20' W 005°38'39 7.7
2015-May-18 04:33N 58°41' W 004°35'9 9.3
2015-May-18 03:33N 58°41' W 004°17'1010.2
2015-May-18 02:34N 58°42' W 003°58'1110.5
2015-May-18 01:33N 58°42' W 003°37'1211.8
2015-May-18 00:33N 58°43' W 003°14'1212.5
2015-May-17 23:33N 58°43' W 002°50'  
Track history (hours):
 
Tides and Currents Weather Stations Pressure Air Temp Water Temp Dewpoint Dewpoint Depression Visibility Wind Speed Wind Dir Waves Ship Positions

Jomi

Last reported at 2015-May-24 01:32 UTC. Time now 2015-May-24 13:24 UTC.
Position N 52°08' W 005°52'.

Length 88 m; draft 5.8 m.

Type: Cargo ship. MMSI: 309701000.

Date/timePositionNaut miles runAvg speedWind from/ knotsBaromVisibWave heightAir tempDewpointWater temp
2015-May-24 01:32N 52°08' W 005°52'8 8.4
2015-May-24 00:33N 52°16' W 005°50'8 8.0
2015-May-23 23:33N 52°24' W 005°48'82 9.0
2015-May-23 14:28N 53°44' W 006°16'1 0.0
2015-May-22 12:33N 53°43' W 006°18'6 6.1
2015-May-22 11:33N 53°43' W 006°07'8810.9
2015-May-22 03:32N 53°34' W 003°40'1212.3
2015-May-22 02:33N 53°32' W 003°20'1010.0
2015-May-22 01:33N 53°29' W 003°04'9 8.7
2015-May-22 00:33N 53°21' W 002°58'3 3.1
2015-May-21 23:33N 53°18' W 002°55'5 5.2
2015-May-21 22:33N 53°18' W 002°46'2 2.3
2015-May-21 21:33N 53°20' W 002°45'0 0.0
2015-May-21 20:33N 53°20' W 002°45'0 0.0
2015-May-21 19:33N 53°20' W 002°45'0 0.0
2015-May-21 18:33N 53°20' W 002°45'0 0.0
2015-May-21 17:33N 53°20' W 002°45'0 0.0
2015-May-21 16:30N 53°20' W 002°45'0 0.0
2015-May-21 15:27N 53°20' W 002°45'0 0.0
2015-May-21 14:33N 53°20' W 002°45'0 0.0
2015-May-21 13:33N 53°20' W 002°45'0 0.0
2015-May-21 12:33N 53°20' W 002°45'0 0.0
2015-May-21 11:33N 53°20' W 002°45'0 0.0
2015-May-21 10:27N 53°20' W 002°45'0 0.0
2015-May-21 09:33N 53°20' W 002°45'0 0.0
2015-May-21 08:33N 53°20' W 002°45'0 0.0
2015-May-21 07:33N 53°20' W 002°45'0 0.0
2015-May-21 06:30N 53°20' W 002°45'0 0.0
2015-May-21 05:33N 53°20' W 002°45'0 0.0
2015-May-21 04:33N 53°20' W 002°45'0 0.0
2015-May-21 03:33N 53°20' W 002°45'0 0.0
2015-May-21 02:33N 53°20' W 002°45'0 0.0
2015-May-21 01:33N 53°20' W 002°45'0 0.0
2015-May-21 00:29N 53°20' W 002°45'0 0.0
2015-May-20 23:32N 53°20' W 002°45'0 0.0
2015-May-20 22:29N 53°20' W 002°45'0 0.0
2015-May-20 21:32N 53°20' W 002°45'0 0.0
2015-May-20 20:32N 53°20' W 002°45'0 0.0
2015-May-20 19:32N 53°20' W 002°45'0 0.0
2015-May-20 18:32N 53°20' W 002°45'0 0.0
2015-May-20 17:32N 53°20' W 002°45'0 0.0
2015-May-20 16:32N 53°20' W 002°45'0 0.0
2015-May-20 15:29N 53°20' W 002°45'0 0.0
2015-May-20 14:32N 53°20' W 002°45'0 0.0
2015-May-20 13:32N 53°20' W 002°45'0 0.0
2015-May-20 12:32N 53°20' W 002°45'0 0.0
2015-May-20 11:32N 53°20' W 002°45'0 0.0
2015-May-20 10:29N 53°20' W 002°45'0 0.0
2015-May-20 09:32N 53°20' W 002°45'0 0.0
2015-May-20 08:32N 53°20' W 002°45'0 0.0
2015-May-20 07:32N 53°20' W 002°45'0 0.0
2015-May-20 06:32N 53°20' W 002°45'0 0.0
2015-May-20 05:32N 53°20' W 002°45'0 0.0
2015-May-20 04:32N 53°20' W 002°45'1 1.4
2015-May-20 03:33N 53°19' W 002°45'6 5.8
2015-May-20 02:33N 53°18' W 002°55'3 2.9
2015-May-20 01:33N 53°20' W 002°58'3 3.0
2015-May-20 00:33N 53°23' W 002°60'7 7.3
2015-May-19 23:33N 53°29' W 003°05'10 9.7
2015-May-19 22:33N 53°31' W 003°21'1010.2
2015-May-19 21:33N 53°38' W 003°34'1111.3
2015-May-19 20:33N 53°46' W 003°48'54 7.6
2015-May-19 13:30N 54°16' W 005°04'910.0
2015-May-19 12:33N 54°24' W 005°10'1010.0
2015-May-19 11:33N 54°34' W 005°17'1211.7
2015-May-19 10:33N 54°44' W 005°25'1412.4
2015-May-19 09:28N 54°55' W 005°38'2613.9
2015-May-19 07:33N 55°17' W 006°04'1211.5
2015-May-19 06:33N 55°25' W 006°19'1010.3
2015-May-19 05:33N 55°33' W 006°31'8 8.3
2015-May-19 04:33N 55°39' W 006°40'7 6.9
2015-May-19 03:33N 55°46' W 006°45'8 7.5
2015-May-19 02:31N 55°53' W 006°52'131 9.1
2015-May-18 12:10N 58°01' W 006°11'610.4
2015-May-18 11:33N 58°06' W 006°03'1010.1
2015-May-18 10:33N 58°13' W 005°50'10 9.6
2015-May-18 09:33N 58°20' W 005°38'39 7.7
2015-May-18 04:33N 58°41' W 004°35'9 9.3
2015-May-18 03:33N 58°41' W 004°17'1010.2
2015-May-18 02:34N 58°42' W 003°58'1110.5
2015-May-18 01:33N 58°42' W 003°37'1211.8
2015-May-18 00:33N 58°43' W 003°14'1212.5
2015-May-17 23:33N 58°43' W 002°50'  

Dump ship's entire track history